In Rescue
 
Open Full Screen Window  High Contrast Mode
Wind Gusting 00 knots
07
January 24, 2020 8:35 PM CST
Weather Information
Wind Direction
  330 °
Wind Speed
  07 kt (8 mph)
Wind Gust
  00 kt (0 mph)
Altimeter
29.94 in
Visibility
10 SM
Temperature
00° C
32° F
Dewpoint
-02° C
28° F
Humidity
87%
1hr Rain Fall
00.00 in.
24hr Rain Fall
00.00 in.
Sky Condition
Overcast @ 1,000 ft
MVFR

METAR KSYN 250235Z AUTO 33007KT 10SM OVC010 00/M02 A2994 RMK AO2 T10051018

FAA Disclaimer: The data displayed is for advisory purposes only and is not to be used for flight planning or operations.